sensor_id;sensor_type;location;lat;lon;timestamp;P1;durP1;ratioP1;P2;durP2;ratioP2
15358;SDS011;7779;49.596;11.070;2023-08-17T00:01:47;2.63;;;2.43;;
15358;SDS011;7779;49.596;11.070;2023-08-17T00:04:13;3.00;;;2.70;;
15358;SDS011;7779;49.596;11.070;2023-08-17T00:06:39;4.60;;;3.03;;
15358;SDS011;7779;49.596;11.070;2023-08-17T00:09:05;3.13;;;2.90;;
15358;SDS011;7779;49.596;11.070;2023-08-17T00:11:32;3.20;;;2.90;;
15358;SDS011;7779;49.596;11.070;2023-08-17T00:13:58;3.43;;;3.13;;
15358;SDS011;7779;49.596;11.070;2023-08-17T00:16:24;3.33;;;3.10;;
15358;SDS011;7779;49.596;11.070;2023-08-17T00:18:50;3.17;;;2.97;;
15358;SDS011;7779;49.596;11.070;2023-08-17T00:21:16;3.37;;;3.07;;
15358;SDS011;7779;49.596;11.070;2023-08-17T00:23:42;3.27;;;2.97;;
15358;SDS011;7779;49.596;11.070;2023-08-17T00:26:08;3.73;;;3.20;;
15358;SDS011;7779;49.596;11.070;2023-08-17T00:28:34;4.23;;;3.10;;
15358;SDS011;7779;49.596;11.070;2023-08-17T00:31:00;4.10;;;3.07;;
15358;SDS011;7779;49.596;11.070;2023-08-17T00:33:26;2.80;;;2.60;;
15358;SDS011;7779;49.596;11.070;2023-08-17T00:35:52;4.13;;;2.90;;
15358;SDS011;7779;49.596;11.070;2023-08-17T00:38:18;3.47;;;3.00;;
15358;SDS011;7779;49.596;11.070;2023-08-17T00:40:44;3.67;;;3.10;;
15358;SDS011;7779;49.596;11.070;2023-08-17T00:43:10;3.20;;;2.83;;
15358;SDS011;7779;49.596;11.070;2023-08-17T00:45:35;3.90;;;3.20;;
15358;SDS011;7779;49.596;11.070;2023-08-17T00:48:02;3.43;;;3.13;;
15358;SDS011;7779;49.596;11.070;2023-08-17T00:50:30;4.10;;;3.40;;
15358;SDS011;7779;49.596;11.070;2023-08-17T00:52:56;4.33;;;3.13;;
15358;SDS011;7779;49.596;11.070;2023-08-17T00:55:22;3.80;;;3.33;;
15358;SDS011;7779;49.596;11.070;2023-08-17T00:57:49;3.63;;;3.33;;
15358;SDS011;7779;49.596;11.070;2023-08-17T01:00:17;3.53;;;3.23;;
15358;SDS011;7779;49.596;11.070;2023-08-17T01:02:43;3.83;;;3.50;;
15358;SDS011;7779;49.596;11.070;2023-08-17T01:05:10;3.47;;;3.17;;
15358;SDS011;7779;49.596;11.070;2023-08-17T01:07:36;3.30;;;3.10;;
15358;SDS011;7779;49.596;11.070;2023-08-17T01:10:02;3.50;;;3.20;;
15358;SDS011;7779;49.596;11.070;2023-08-17T01:12:32;3.60;;;3.30;;
15358;SDS011;7779;49.596;11.070;2023-08-17T01:15:24;3.77;;;3.33;;
15358;SDS011;7779;49.596;11.070;2023-08-17T01:20:49;3.50;;;3.20;;
15358;SDS011;7779;49.596;11.070;2023-08-17T01:23:18;3.73;;;3.13;;
15358;SDS011;7779;49.596;11.070;2023-08-17T01:25:44;3.40;;;3.20;;
15358;SDS011;7779;49.596;11.070;2023-08-17T01:28:10;3.90;;;3.60;;
15358;SDS011;7779;49.596;11.070;2023-08-17T01:30:44;3.43;;;3.13;;
15358;SDS011;7779;49.596;11.070;2023-08-17T01:36:20;3.73;;;3.33;;
15358;SDS011;7779;49.596;11.070;2023-08-17T01:38:51;4.00;;;3.60;;
15358;SDS011;7779;49.596;11.070;2023-08-17T01:41:23;4.10;;;3.40;;
15358;SDS011;7779;49.596;11.070;2023-08-17T01:43:51;3.53;;;3.23;;
15358;SDS011;7779;49.596;11.070;2023-08-17T01:46:18;3.93;;;3.50;;
15358;SDS011;7779;49.596;11.070;2023-08-17T01:48:44;4.40;;;3.20;;
15358;SDS011;7779;49.596;11.070;2023-08-17T01:51:11;3.67;;;3.37;;
15358;SDS011;7779;49.596;11.070;2023-08-17T01:53:47;4.53;;;3.57;;
15358;SDS011;7779;49.596;11.070;2023-08-17T01:56:13;3.80;;;3.40;;
15358;SDS011;7779;49.596;11.070;2023-08-17T01:58:40;3.93;;;3.53;;
15358;SDS011;7779;49.596;11.070;2023-08-17T02:01:06;4.10;;;3.67;;
15358;SDS011;7779;49.596;11.070;2023-08-17T02:03:32;4.13;;;3.70;;
15358;SDS011;7779;49.596;11.070;2023-08-17T02:05:58;3.73;;;3.40;;
15358;SDS011;7779;49.596;11.070;2023-08-17T02:08:24;4.07;;;3.50;;
15358;SDS011;7779;49.596;11.070;2023-08-17T02:10:52;4.63;;;3.93;;
15358;SDS011;7779;49.596;11.070;2023-08-17T02:13:20;4.77;;;3.90;;
15358;SDS011;7779;49.596;11.070;2023-08-17T02:15:46;4.10;;;3.70;;
15358;SDS011;7779;49.596;11.070;2023-08-17T02:18:12;4.00;;;3.60;;
15358;SDS011;7779;49.596;11.070;2023-08-17T02:20:38;3.77;;;3.47;;
15358;SDS011;7779;49.596;11.070;2023-08-17T02:23:03;3.80;;;3.53;;
15358;SDS011;7779;49.596;11.070;2023-08-17T02:25:29;4.30;;;3.90;;
15358;SDS011;7779;49.596;11.070;2023-08-17T02:28:00;3.90;;;3.50;;
15358;SDS011;7779;49.596;11.070;2023-08-17T02:30:28;3.73;;;3.43;;
15358;SDS011;7779;49.596;11.070;2023-08-17T02:32:57;3.77;;;3.47;;
15358;SDS011;7779;49.596;11.070;2023-08-17T02:35:23;4.10;;;3.70;;
15358;SDS011;7779;49.596;11.070;2023-08-17T02:37:48;3.90;;;3.50;;
15358;SDS011;7779;49.596;11.070;2023-08-17T02:40:14;3.60;;;3.23;;
15358;SDS011;7779;49.596;11.070;2023-08-17T02:42:40;3.90;;;3.60;;
15358;SDS011;7779;49.596;11.070;2023-08-17T02:45:06;4.23;;;3.83;;
15358;SDS011;7779;49.596;11.070;2023-08-17T02:47:34;5.17;;;3.80;;
15358;SDS011;7779;49.596;11.070;2023-08-17T02:50:00;3.90;;;3.40;;
15358;SDS011;7779;49.596;11.070;2023-08-17T02:52:26;4.60;;;3.43;;
15358;SDS011;7779;49.596;11.070;2023-08-17T02:54:51;4.20;;;3.80;;
15358;SDS011;7779;49.596;11.070;2023-08-17T02:57:17;3.93;;;3.63;;
15358;SDS011;7779;49.596;11.070;2023-08-17T02:59:45;3.90;;;3.47;;
15358;SDS011;7779;49.596;11.070;2023-08-17T03:02:11;4.40;;;3.50;;
15358;SDS011;7779;49.596;11.070;2023-08-17T03:04:36;4.07;;;3.70;;
15358;SDS011;7779;49.596;11.070;2023-08-17T03:07:02;4.47;;;3.70;;
15358;SDS011;7779;49.596;11.070;2023-08-17T03:09:28;3.83;;;3.47;;
15358;SDS011;7779;49.596;11.070;2023-08-17T03:11:54;3.80;;;3.50;;
15358;SDS011;7779;49.596;11.070;2023-08-17T03:14:20;4.00;;;3.70;;
15358;SDS011;7779;49.596;11.070;2023-08-17T03:16:46;4.30;;;3.90;;
15358;SDS011;7779;49.596;11.070;2023-08-17T03:19:14;4.57;;;3.70;;
15358;SDS011;7779;49.596;11.070;2023-08-17T03:21:41;4.30;;;4.00;;
15358;SDS011;7779;49.596;11.070;2023-08-17T03:24:07;4.33;;;4.00;;
15358;SDS011;7779;49.596;11.070;2023-08-17T03:26:33;4.40;;;4.00;;
15358;SDS011;7779;49.596;11.070;2023-08-17T03:28:59;4.40;;;4.00;;
15358;SDS011;7779;49.596;11.070;2023-08-17T03:31:24;4.20;;;3.90;;
15358;SDS011;7779;49.596;11.070;2023-08-17T03:33:50;4.60;;;4.20;;
15358;SDS011;7779;49.596;11.070;2023-08-17T03:36:17;4.53;;;4.13;;
15358;SDS011;7779;49.596;11.070;2023-08-17T03:38:42;4.50;;;4.03;;
15358;SDS011;7779;49.596;11.070;2023-08-17T03:41:08;5.77;;;4.47;;
15358;SDS011;7779;49.596;11.070;2023-08-17T03:43:35;4.57;;;4.17;;
15358;SDS011;7779;49.596;11.070;2023-08-17T03:46:03;4.27;;;3.87;;
15358;SDS011;7779;49.596;11.070;2023-08-17T03:48:29;4.47;;;4.07;;
15358;SDS011;7779;49.596;11.070;2023-08-17T03:50:55;4.60;;;4.20;;
15358;SDS011;7779;49.596;11.070;2023-08-17T03:53:21;4.40;;;4.00;;
15358;SDS011;7779;49.596;11.070;2023-08-17T03:55:47;4.40;;;4.00;;
15358;SDS011;7779;49.596;11.070;2023-08-17T03:58:17;4.40;;;4.10;;
15358;SDS011;7779;49.596;11.070;2023-08-17T04:00:50;4.97;;;4.30;;
15358;SDS011;7779;49.596;11.070;2023-08-17T04:03:21;4.53;;;4.13;;
15358;SDS011;7779;49.596;11.070;2023-08-17T04:05:48;4.67;;;4.27;;
15358;SDS011;7779;49.596;11.070;2023-08-17T04:08:13;5.17;;;4.67;;
15358;SDS011;7779;49.596;11.070;2023-08-17T04:10:39;5.00;;;4.13;;
15358;SDS011;7779;49.596;11.070;2023-08-17T04:13:05;4.77;;;4.27;;
15358;SDS011;7779;49.596;11.070;2023-08-17T04:15:31;4.57;;;4.27;;
15358;SDS011;7779;49.596;11.070;2023-08-17T04:17:56;5.27;;;4.37;;
15358;SDS011;7779;49.596;11.070;2023-08-17T04:20:22;4.30;;;3.90;;
15358;SDS011;7779;49.596;11.070;2023-08-17T04:22:50;4.57;;;4.03;;
15358;SDS011;7779;49.596;11.070;2023-08-17T04:25:16;4.93;;;4.33;;
15358;SDS011;7779;49.596;11.070;2023-08-17T04:27:42;5.63;;;4.77;;
15358;SDS011;7779;49.596;11.070;2023-08-17T04:30:08;4.87;;;4.47;;
15358;SDS011;7779;49.596;11.070;2023-08-17T04:32:45;4.73;;;4.33;;
15358;SDS011;7779;49.596;11.070;2023-08-17T04:35:17;4.90;;;4.50;;
15358;SDS011;7779;49.596;11.070;2023-08-17T04:37:44;4.73;;;4.33;;
15358;SDS011;7779;49.596;11.070;2023-08-17T04:40:10;4.70;;;4.30;;
15358;SDS011;7779;49.596;11.070;2023-08-17T04:42:36;5.13;;;4.67;;
15358;SDS011;7779;49.596;11.070;2023-08-17T04:45:03;4.47;;;4.07;;
15358;SDS011;7779;49.596;11.070;2023-08-17T04:47:30;4.90;;;4.50;;
15358;SDS011;7779;49.596;11.070;2023-08-17T04:49:57;5.40;;;4.90;;
15358;SDS011;7779;49.596;11.070;2023-08-17T04:52:23;4.83;;;4.40;;
15358;SDS011;7779;49.596;11.070;2023-08-17T04:54:49;4.80;;;4.40;;
15358;SDS011;7779;49.596;11.070;2023-08-17T04:57:15;4.50;;;4.20;;
15358;SDS011;7779;49.596;11.070;2023-08-17T04:59:41;4.77;;;4.17;;
15358;SDS011;7779;49.596;11.070;2023-08-17T05:02:08;4.80;;;4.40;;
15358;SDS011;7779;49.596;11.070;2023-08-17T05:04:34;6.17;;;4.53;;
15358;SDS011;7779;49.596;11.070;2023-08-17T05:07:00;4.83;;;4.33;;
15358;SDS011;7779;49.596;11.070;2023-08-17T05:09:27;4.83;;;4.40;;
15358;SDS011;7779;49.596;11.070;2023-08-17T05:11:52;4.90;;;4.50;;
15358;SDS011;7779;49.596;11.070;2023-08-17T05:14:19;5.17;;;4.67;;
15358;SDS011;7779;49.596;11.070;2023-08-17T05:16:45;5.23;;;4.60;;
15358;SDS011;7779;49.596;11.070;2023-08-17T05:19:11;4.30;;;3.90;;
15358;SDS011;7779;49.596;11.070;2023-08-17T05:21:36;5.47;;;4.70;;
15358;SDS011;7779;49.596;11.070;2023-08-17T05:24:02;4.87;;;4.47;;
15358;SDS011;7779;49.596;11.070;2023-08-17T05:26:28;4.93;;;4.13;;
15358;SDS011;7779;49.596;11.070;2023-08-17T05:28:54;4.80;;;4.30;;
15358;SDS011;7779;49.596;11.070;2023-08-17T05:31:22;5.17;;;4.67;;
15358;SDS011;7779;49.596;11.070;2023-08-17T05:33:49;5.00;;;4.50;;
15358;SDS011;7779;49.596;11.070;2023-08-17T05:36:16;4.93;;;4.50;;
15358;SDS011;7779;49.596;11.070;2023-08-17T05:38:43;5.40;;;4.90;;
15358;SDS011;7779;49.596;11.070;2023-08-17T05:41:10;4.97;;;4.57;;
15358;SDS011;7779;49.596;11.070;2023-08-17T05:43:36;4.97;;;4.57;;
15358;SDS011;7779;49.596;11.070;2023-08-17T05:46:01;5.60;;;5.07;;
15358;SDS011;7779;49.596;11.070;2023-08-17T05:48:28;6.00;;;4.90;;
15358;SDS011;7779;49.596;11.070;2023-08-17T05:50:55;4.80;;;4.40;;
15358;SDS011;7779;49.596;11.070;2023-08-17T05:53:21;4.93;;;4.53;;
15358;SDS011;7779;49.596;11.070;2023-08-17T05:55:47;4.73;;;4.33;;
15358;SDS011;7779;49.596;11.070;2023-08-17T05:58:13;4.97;;;4.50;;
15358;SDS011;7779;49.596;11.070;2023-08-17T06:00:38;4.57;;;4.17;;
15358;SDS011;7779;49.596;11.070;2023-08-17T06:03:04;6.27;;;4.20;;
15358;SDS011;7779;49.596;11.070;2023-08-17T06:05:30;4.80;;;4.40;;
15358;SDS011;7779;49.596;11.070;2023-08-17T06:07:56;4.40;;;4.00;;
15358;SDS011;7779;49.596;11.070;2023-08-17T06:10:22;4.70;;;4.30;;
15358;SDS011;7779;49.596;11.070;2023-08-17T06:12:53;4.93;;;4.53;;
15358;SDS011;7779;49.596;11.070;2023-08-17T06:15:21;4.37;;;4.07;;
15358;SDS011;7779;49.596;11.070;2023-08-17T06:17:47;4.87;;;4.47;;
15358;SDS011;7779;49.596;11.070;2023-08-17T06:20:15;4.70;;;4.30;;
15358;SDS011;7779;49.596;11.070;2023-08-17T06:22:41;5.17;;;4.27;;
15358;SDS011;7779;49.596;11.070;2023-08-17T06:25:07;4.83;;;4.43;;
15358;SDS011;7779;49.596;11.070;2023-08-17T06:27:34;5.07;;;4.30;;
15358;SDS011;7779;49.596;11.070;2023-08-17T06:30:00;4.47;;;4.07;;
15358;SDS011;7779;49.596;11.070;2023-08-17T06:32:28;6.40;;;3.93;;
15358;SDS011;7779;49.596;11.070;2023-08-17T06:34:55;4.80;;;4.40;;
15358;SDS011;7779;49.596;11.070;2023-08-17T06:37:20;5.20;;;4.73;;
15358;SDS011;7779;49.596;11.070;2023-08-17T06:39:47;4.57;;;4.27;;
15358;SDS011;7779;49.596;11.070;2023-08-17T06:42:13;4.27;;;3.97;;
15358;SDS011;7779;49.596;11.070;2023-08-17T06:44:39;4.27;;;3.97;;
15358;SDS011;7779;49.596;11.070;2023-08-17T06:47:04;5.00;;;4.60;;
15358;SDS011;7779;49.596;11.070;2023-08-17T06:49:30;4.20;;;3.90;;
15358;SDS011;7779;49.596;11.070;2023-08-17T06:51:56;4.83;;;4.37;;
15358;SDS011;7779;49.596;11.070;2023-08-17T06:54:22;4.10;;;3.80;;
15358;SDS011;7779;49.596;11.070;2023-08-17T06:56:47;6.73;;;4.40;;
15358;SDS011;7779;49.596;11.070;2023-08-17T06:59:13;4.50;;;4.20;;
15358;SDS011;7779;49.596;11.070;2023-08-17T07:01:39;4.60;;;4.03;;
15358;SDS011;7779;49.596;11.070;2023-08-17T07:04:04;4.47;;;4.10;;
15358;SDS011;7779;49.596;11.070;2023-08-17T07:06:30;4.80;;;3.77;;
15358;SDS011;7779;49.596;11.070;2023-08-17T07:08:56;4.67;;;4.27;;
15358;SDS011;7779;49.596;11.070;2023-08-17T07:11:22;4.60;;;4.30;;
15358;SDS011;7779;49.596;11.070;2023-08-17T07:13:47;4.60;;;4.20;;
15358;SDS011;7779;49.596;11.070;2023-08-17T07:16:13;4.73;;;4.33;;
15358;SDS011;7779;49.596;11.070;2023-08-17T07:18:39;4.77;;;4.17;;
15358;SDS011;7779;49.596;11.070;2023-08-17T07:21:05;4.37;;;3.97;;
15358;SDS011;7779;49.596;11.070;2023-08-17T07:23:31;4.33;;;4.03;;
15358;SDS011;7779;49.596;11.070;2023-08-17T07:25:57;4.80;;;4.40;;
15358;SDS011;7779;49.596;11.070;2023-08-17T07:28:22;4.67;;;4.37;;
15358;SDS011;7779;49.596;11.070;2023-08-17T07:30:48;4.43;;;4.03;;
15358;SDS011;7779;49.596;11.070;2023-08-17T07:33:14;4.53;;;4.07;;
15358;SDS011;7779;49.596;11.070;2023-08-17T07:35:39;4.43;;;4.03;;
15358;SDS011;7779;49.596;11.070;2023-08-17T07:38:05;4.97;;;4.50;;
15358;SDS011;7779;49.596;11.070;2023-08-17T07:40:31;4.57;;;4.20;;
15358;SDS011;7779;49.596;11.070;2023-08-17T07:42:57;5.73;;;4.30;;
15358;SDS011;7779;49.596;11.070;2023-08-17T07:45:22;4.50;;;4.10;;
15358;SDS011;7779;49.596;11.070;2023-08-17T07:47:48;4.60;;;4.20;;
15358;SDS011;7779;49.596;11.070;2023-08-17T07:50:14;4.70;;;4.20;;
15358;SDS011;7779;49.596;11.070;2023-08-17T07:52:39;4.90;;;4.50;;
15358;SDS011;7779;49.596;11.070;2023-08-17T07:55:05;4.83;;;4.43;;
15358;SDS011;7779;49.596;11.070;2023-08-17T07:57:31;4.83;;;4.43;;
15358;SDS011;7779;49.596;11.070;2023-08-17T07:59:57;5.03;;;4.60;;
15358;SDS011;7779;49.596;11.070;2023-08-17T08:02:23;4.50;;;4.20;;
15358;SDS011;7779;49.596;11.070;2023-08-17T08:04:48;4.87;;;4.47;;
15358;SDS011;7779;49.596;11.070;2023-08-17T08:07:14;4.67;;;4.30;;
15358;SDS011;7779;49.596;11.070;2023-08-17T08:09:40;4.60;;;4.30;;
15358;SDS011;7779;49.596;11.070;2023-08-17T08:12:05;5.00;;;4.60;;
15358;SDS011;7779;49.596;11.070;2023-08-17T08:14:33;4.93;;;4.53;;
15358;SDS011;7779;49.596;11.070;2023-08-17T08:17:00;4.93;;;4.47;;
15358;SDS011;7779;49.596;11.070;2023-08-17T08:19:25;4.60;;;4.20;;
15358;SDS011;7779;49.596;11.070;2023-08-17T08:21:51;4.87;;;4.47;;
15358;SDS011;7779;49.596;11.070;2023-08-17T08:24:17;5.10;;;4.70;;
15358;SDS011;7779;49.596;11.070;2023-08-17T08:26:42;4.73;;;4.33;;
15358;SDS011;7779;49.596;11.070;2023-08-17T08:29:10;4.80;;;4.40;;
15358;SDS011;7779;49.596;11.070;2023-08-17T08:31:35;6.13;;;5.13;;
15358;SDS011;7779;49.596;11.070;2023-08-17T08:34:01;5.60;;;5.20;;
15358;SDS011;7779;49.596;11.070;2023-08-17T08:36:27;5.07;;;4.70;;
15358;SDS011;7779;49.596;11.070;2023-08-17T08:38:52;5.10;;;4.70;;
15358;SDS011;7779;49.596;11.070;2023-08-17T08:41:18;5.13;;;4.63;;
15358;SDS011;7779;49.596;11.070;2023-08-17T08:43:45;5.40;;;4.80;;
15358;SDS011;7779;49.596;11.070;2023-08-17T08:46:11;5.07;;;4.67;;
15358;SDS011;7779;49.596;11.070;2023-08-17T08:48:38;4.93;;;4.57;;
15358;SDS011;7779;49.596;11.070;2023-08-17T08:51:07;5.23;;;4.73;;
15358;SDS011;7779;49.596;11.070;2023-08-17T08:53:38;5.20;;;4.90;;
15358;SDS011;7779;49.596;11.070;2023-08-17T08:56:10;4.90;;;4.60;;
15358;SDS011;7779;49.596;11.070;2023-08-17T08:58:37;5.93;;;5.53;;
15358;SDS011;7779;49.596;11.070;2023-08-17T09:01:05;5.90;;;5.37;;
15358;SDS011;7779;49.596;11.070;2023-08-17T09:03:34;5.20;;;4.70;;
15358;SDS011;7779;49.596;11.070;2023-08-17T09:06:01;5.60;;;5.10;;
15358;SDS011;7779;49.596;11.070;2023-08-17T09:08:29;4.90;;;4.60;;
15358;SDS011;7779;49.596;11.070;2023-08-17T09:10:56;5.20;;;4.80;;
15358;SDS011;7779;49.596;11.070;2023-08-17T09:13:22;5.30;;;4.90;;
15358;SDS011;7779;49.596;11.070;2023-08-17T09:15:48;5.67;;;5.10;;
15358;SDS011;7779;49.596;11.070;2023-08-17T09:18:14;4.73;;;4.43;;
15358;SDS011;7779;49.596;11.070;2023-08-17T09:20:46;5.10;;;4.70;;
15358;SDS011;7779;49.596;11.070;2023-08-17T09:23:17;6.93;;;4.97;;
15358;SDS011;7779;49.596;11.070;2023-08-17T09:25:46;4.80;;;4.50;;
15358;SDS011;7779;49.596;11.070;2023-08-17T09:28:17;5.03;;;4.63;;
15358;SDS011;7779;49.596;11.070;2023-08-17T09:30:51;5.30;;;4.80;;
15358;SDS011;7779;49.596;11.070;2023-08-17T09:33:28;5.27;;;4.87;;
15358;SDS011;7779;49.596;11.070;2023-08-17T09:35:56;5.57;;;5.07;;
15358;SDS011;7779;49.596;11.070;2023-08-17T09:38:24;5.17;;;4.77;;
15358;SDS011;7779;49.596;11.070;2023-08-17T09:40:51;5.13;;;4.73;;
15358;SDS011;7779;49.596;11.070;2023-08-17T09:43:17;5.10;;;4.70;;
15358;SDS011;7779;49.596;11.070;2023-08-17T09:45:45;5.17;;;4.77;;
15358;SDS011;7779;49.596;11.070;2023-08-17T09:48:17;5.33;;;4.93;;
15358;SDS011;7779;49.596;11.070;2023-08-17T09:50:46;5.07;;;4.67;;
15358;SDS011;7779;49.596;11.070;2023-08-17T09:53:13;5.37;;;4.97;;
15358;SDS011;7779;49.596;11.070;2023-08-17T09:55:44;5.73;;;5.07;;
15358;SDS011;7779;49.596;11.070;2023-08-17T09:58:14;5.30;;;4.90;;
15358;SDS011;7779;49.596;11.070;2023-08-17T10:00:49;7.20;;;4.93;;
15358;SDS011;7779;49.596;11.070;2023-08-17T10:03:16;5.17;;;4.77;;
15358;SDS011;7779;49.596;11.070;2023-08-17T10:05:45;5.80;;;5.30;;
15358;SDS011;7779;49.596;11.070;2023-08-17T10:08:25;5.33;;;4.93;;
15358;SDS011;7779;49.596;11.070;2023-08-17T10:10:55;5.50;;;5.10;;
15358;SDS011;7779;49.596;11.070;2023-08-17T10:13:37;5.37;;;4.87;;
15358;SDS011;7779;49.596;11.070;2023-08-17T10:18:54;5.00;;;4.60;;
15358;SDS011;7779;49.596;11.070;2023-08-17T10:21:48;5.83;;;5.33;;
15358;SDS011;7779;49.596;11.070;2023-08-17T10:24:21;5.60;;;5.10;;
15358;SDS011;7779;49.596;11.070;2023-08-17T10:26:48;6.17;;;5.57;;
15358;SDS011;7779;49.596;11.070;2023-08-17T10:29:15;8.33;;;5.43;;
15358;SDS011;7779;49.596;11.070;2023-08-17T10:31:43;5.43;;;4.93;;
15358;SDS011;7779;49.596;11.070;2023-08-17T10:34:13;5.67;;;5.17;;
15358;SDS011;7779;49.596;11.070;2023-08-17T10:36:40;5.53;;;5.13;;
15358;SDS011;7779;49.596;11.070;2023-08-17T10:39:26;6.07;;;5.43;;
15358;SDS011;7779;49.596;11.070;2023-08-17T10:41:54;5.30;;;4.77;;
15358;SDS011;7779;49.596;11.070;2023-08-17T10:44:43;6.90;;;5.60;;
15358;SDS011;7779;49.596;11.070;2023-08-17T10:47:32;5.73;;;5.27;;
15358;SDS011;7779;49.596;11.070;2023-08-17T10:49:58;5.67;;;5.27;;
15358;SDS011;7779;49.596;11.070;2023-08-17T10:52:30;5.10;;;4.70;;
15358;SDS011;7779;49.596;11.070;2023-08-17T10:55:03;5.80;;;5.30;;
15358;SDS011;7779;49.596;11.070;2023-08-17T11:00:19;5.87;;;5.40;;
15358;SDS011;7779;49.596;11.070;2023-08-17T11:02:55;5.20;;;4.80;;
15358;SDS011;7779;49.596;11.070;2023-08-17T11:08:09;5.83;;;5.43;;
15358;SDS011;7779;49.596;11.070;2023-08-17T11:11:04;13.57;;;5.83;;
15358;SDS011;7779;49.596;11.070;2023-08-17T11:13:38;6.50;;;5.90;;
15358;SDS011;7779;49.596;11.070;2023-08-17T11:16:06;5.57;;;5.17;;
15358;SDS011;7779;49.596;11.070;2023-08-17T11:18:35;4.90;;;4.60;;
15358;SDS011;7779;49.596;11.070;2023-08-17T11:21:10;5.80;;;5.40;;
15358;SDS011;7779;49.596;11.070;2023-08-17T11:23:37;5.53;;;5.03;;
15358;SDS011;7779;49.596;11.070;2023-08-17T11:26:03;8.53;;;6.17;;
15358;SDS011;7779;49.596;11.070;2023-08-17T11:28:30;5.87;;;5.47;;
15358;SDS011;7779;49.596;11.070;2023-08-17T11:31:02;5.43;;;5.03;;
15358;SDS011;7779;49.596;11.070;2023-08-17T11:33:30;5.50;;;5.10;;
15358;SDS011;7779;49.596;11.070;2023-08-17T11:35:58;6.63;;;5.60;;
15358;SDS011;7779;49.596;11.070;2023-08-17T11:38:30;6.10;;;5.70;;
15358;SDS011;7779;49.596;11.070;2023-08-17T11:41:01;5.57;;;5.17;;
15358;SDS011;7779;49.596;11.070;2023-08-17T11:43:28;5.90;;;5.40;;
15358;SDS011;7779;49.596;11.070;2023-08-17T11:45:55;6.20;;;5.70;;
15358;SDS011;7779;49.596;11.070;2023-08-17T11:48:23;5.40;;;5.00;;
15358;SDS011;7779;49.596;11.070;2023-08-17T11:50:49;5.80;;;5.30;;
15358;SDS011;7779;49.596;11.070;2023-08-17T11:53:16;5.93;;;5.43;;
15358;SDS011;7779;49.596;11.070;2023-08-17T11:55:41;5.77;;;5.37;;
15358;SDS011;7779;49.596;11.070;2023-08-17T11:58:08;5.83;;;5.33;;
15358;SDS011;7779;49.596;11.070;2023-08-17T12:00:35;5.80;;;5.30;;
15358;SDS011;7779;49.596;11.070;2023-08-17T12:03:05;5.90;;;5.30;;
15358;SDS011;7779;49.596;11.070;2023-08-17T12:05:32;6.13;;;5.63;;
15358;SDS011;7779;49.596;11.070;2023-08-17T12:08:01;5.90;;;5.50;;
15358;SDS011;7779;49.596;11.070;2023-08-17T12:10:29;5.83;;;5.13;;
15358;SDS011;7779;49.596;11.070;2023-08-17T12:12:59;5.47;;;5.07;;
15358;SDS011;7779;49.596;11.070;2023-08-17T12:15:33;6.07;;;5.50;;
15358;SDS011;7779;49.596;11.070;2023-08-17T12:18:01;5.90;;;5.40;;
15358;SDS011;7779;49.596;11.070;2023-08-17T12:20:29;6.17;;;5.57;;
15358;SDS011;7779;49.596;11.070;2023-08-17T12:22:57;6.00;;;5.47;;
15358;SDS011;7779;49.596;11.070;2023-08-17T12:25:24;5.70;;;5.30;;
15358;SDS011;7779;49.596;11.070;2023-08-17T12:27:51;5.87;;;5.27;;
15358;SDS011;7779;49.596;11.070;2023-08-17T12:30:23;6.07;;;5.57;;
15358;SDS011;7779;49.596;11.070;2023-08-17T12:32:56;5.57;;;5.17;;
15358;SDS011;7779;49.596;11.070;2023-08-17T12:35:22;6.10;;;5.60;;
15358;SDS011;7779;49.596;11.070;2023-08-17T12:37:49;5.80;;;5.30;;
15358;SDS011;7779;49.596;11.070;2023-08-17T12:40:19;6.10;;;5.60;;
15358;SDS011;7779;49.596;11.070;2023-08-17T12:42:46;5.73;;;5.33;;
15358;SDS011;7779;49.596;11.070;2023-08-17T12:45:12;6.00;;;5.50;;
15358;SDS011;7779;49.596;11.070;2023-08-17T12:47:38;5.60;;;5.20;;
15358;SDS011;7779;49.596;11.070;2023-08-17T12:50:04;5.87;;;5.47;;
15358;SDS011;7779;49.596;11.070;2023-08-17T12:52:30;6.63;;;5.97;;
15358;SDS011;7779;49.596;11.070;2023-08-17T12:54:56;6.13;;;5.63;;
15358;SDS011;7779;49.596;11.070;2023-08-17T12:57:22;6.27;;;5.77;;
15358;SDS011;7779;49.596;11.070;2023-08-17T12:59:48;5.43;;;5.03;;
15358;SDS011;7779;49.596;11.070;2023-08-17T13:02:14;5.67;;;5.17;;
15358;SDS011;7779;49.596;11.070;2023-08-17T13:04:40;6.63;;;6.03;;
15358;SDS011;7779;49.596;11.070;2023-08-17T13:07:06;5.63;;;5.23;;
15358;SDS011;7779;49.596;11.070;2023-08-17T13:09:32;5.73;;;5.33;;
15358;SDS011;7779;49.596;11.070;2023-08-17T13:11:58;6.10;;;5.50;;
15358;SDS011;7779;49.596;11.070;2023-08-17T13:14:24;6.10;;;5.60;;
15358;SDS011;7779;49.596;11.070;2023-08-17T13:16:50;6.20;;;5.60;;
15358;SDS011;7779;49.596;11.070;2023-08-17T13:19:17;6.43;;;5.73;;
15358;SDS011;7779;49.596;11.070;2023-08-17T13:21:43;5.97;;;5.47;;
15358;SDS011;7779;49.596;11.070;2023-08-17T13:24:09;5.73;;;5.33;;
15358;SDS011;7779;49.596;11.070;2023-08-17T13:26:35;6.00;;;5.60;;
15358;SDS011;7779;49.596;11.070;2023-08-17T13:29:00;6.33;;;5.93;;
15358;SDS011;7779;49.596;11.070;2023-08-17T13:31:26;6.30;;;5.80;;
15358;SDS011;7779;49.596;11.070;2023-08-17T13:33:52;6.33;;;5.73;;
15358;SDS011;7779;49.596;11.070;2023-08-17T13:36:18;6.23;;;5.63;;
15358;SDS011;7779;49.596;11.070;2023-08-17T13:38:44;6.60;;;6.10;;
15358;SDS011;7779;49.596;11.070;2023-08-17T13:41:11;6.40;;;5.90;;
15358;SDS011;7779;49.596;11.070;2023-08-17T13:43:37;5.87;;;5.47;;
15358;SDS011;7779;49.596;11.070;2023-08-17T13:46:03;6.53;;;6.03;;
15358;SDS011;7779;49.596;11.070;2023-08-17T13:48:30;6.37;;;5.87;;
15358;SDS011;7779;49.596;11.070;2023-08-17T13:50:55;5.90;;;5.50;;
15358;SDS011;7779;49.596;11.070;2023-08-17T13:53:22;6.33;;;5.83;;
15358;SDS011;7779;49.596;11.070;2023-08-17T13:56:25;5.97;;;5.57;;
15358;SDS011;7779;49.596;11.070;2023-08-17T13:58:51;6.17;;;5.77;;
15358;SDS011;7779;49.596;11.070;2023-08-17T14:01:17;6.10;;;5.60;;
15358;SDS011;7779;49.596;11.070;2023-08-17T14:03:43;8.50;;;5.90;;
15358;SDS011;7779;49.596;11.070;2023-08-17T14:06:09;6.13;;;5.63;;
15358;SDS011;7779;49.596;11.070;2023-08-17T14:08:35;6.73;;;6.03;;
15358;SDS011;7779;49.596;11.070;2023-08-17T14:11:00;6.13;;;5.53;;
15358;SDS011;7779;49.596;11.070;2023-08-17T14:13:27;5.77;;;5.37;;
15358;SDS011;7779;49.596;11.070;2023-08-17T14:15:53;5.50;;;5.03;;
15358;SDS011;7779;49.596;11.070;2023-08-17T14:18:21;5.93;;;5.53;;
15358;SDS011;7779;49.596;11.070;2023-08-17T14:20:47;6.37;;;5.87;;
15358;SDS011;7779;49.596;11.070;2023-08-17T14:23:13;6.30;;;5.70;;
15358;SDS011;7779;49.596;11.070;2023-08-17T14:25:38;5.93;;;5.53;;
15358;SDS011;7779;49.596;11.070;2023-08-17T14:28:04;6.73;;;6.13;;
15358;SDS011;7779;49.596;11.070;2023-08-17T14:30:32;6.00;;;5.60;;
15358;SDS011;7779;49.596;11.070;2023-08-17T14:32:58;6.40;;;5.90;;
15358;SDS011;7779;49.596;11.070;2023-08-17T14:35:24;6.30;;;5.80;;
15358;SDS011;7779;49.596;11.070;2023-08-17T14:37:51;6.03;;;5.63;;
15358;SDS011;7779;49.596;11.070;2023-08-17T14:40:17;6.23;;;5.83;;
15358;SDS011;7779;49.596;11.070;2023-08-17T14:42:43;5.70;;;5.30;;
15358;SDS011;7779;49.596;11.070;2023-08-17T14:45:09;6.47;;;5.97;;
15358;SDS011;7779;49.596;11.070;2023-08-17T14:47:36;6.17;;;5.67;;
15358;SDS011;7779;49.596;11.070;2023-08-17T14:50:02;5.97;;;5.47;;
15358;SDS011;7779;49.596;11.070;2023-08-17T14:52:28;6.00;;;5.40;;
15358;SDS011;7779;49.596;11.070;2023-08-17T14:54:54;5.90;;;5.50;;
15358;SDS011;7779;49.596;11.070;2023-08-17T14:57:20;6.33;;;5.73;;
15358;SDS011;7779;49.596;11.070;2023-08-17T14:59:45;6.00;;;5.47;;
15358;SDS011;7779;49.596;11.070;2023-08-17T15:02:11;6.00;;;5.50;;
15358;SDS011;7779;49.596;11.070;2023-08-17T15:04:38;5.37;;;4.97;;